Time;durP1;ratioP1;P1;durP2;ratioP2;P2;SDS_P1;SDS_P2;PMS_P1;PMS_P2;Temp;Humidity;BMP_temperature;BMP_pressure;BME280_temperature;BME280_humidity;BME280_pressure;Samples;Min_cycle;Max_cycle;Signal;HPM_P1;HPM_P2
2022/02/15 00:01:02;;;;;;;13.15;7.43;;;;;;;-0.47;56.48;99867.88;5071242;28;20032;-56
2022/02/15 00:03:27;;;;;;;12.38;7.20;;;;;;;-0.44;56.43;99875.66;5071369;28;20386;-57
2022/02/15 00:05:53;;;;;;;12.82;7.13;;;;;;;-0.44;56.48;99873.03;5071763;28;20029;-55
2022/02/15 00:08:18;;;;;;;15.60;7.55;;;;;;;-0.66;56.20;99824.72;5071503;28;20040;-56
2022/02/15 00:10:47;;;;;;;15.10;7.38;;;;;;;-0.39;56.38;99864.97;5070976;28;20024;-55
2022/02/15 00:13:14;;;;;;;12.48;7.35;;;;;;;-0.46;56.52;99864.34;5071086;28;20029;-52
2022/02/15 00:15:39;;;;;;;15.68;7.90;;;;;;;-0.50;56.77;99875.84;5071393;28;20025;-54
2022/02/15 00:18:05;;;;;;;13.32;7.75;;;;;;;-0.50;56.50;99873.22;5071211;28;20084;-60
2022/02/15 00:20:30;;;;;;;12.80;7.53;;;;;;;-0.50;56.63;99880.28;5070750;28;20037;-53
2022/02/15 00:22:56;;;;;;;12.82;7.45;;;;;;;-0.55;56.45;99880.41;5071326;28;20505;-53
2022/02/15 00:25:22;;;;;;;15.18;7.55;;;;;;;-0.76;56.75;99839.94;5070829;28;20174;-58
2022/02/15 00:27:48;;;;;;;12.60;7.03;;;;;;;-0.62;57.12;99873.66;5070863;28;20036;-57
2022/02/15 00:30:14;;;;;;;13.68;7.45;;;;;;;-0.69;57.35;99865.09;5073671;28;20039;-58
2022/02/15 00:32:41;;;;;;;15.02;7.75;;;;;;;-0.64;56.97;99862.34;5074611;28;20032;-55
2022/02/15 00:35:07;;;;;;;14.02;7.72;;;;;;;-0.67;57.08;99865.91;5075175;28;20089;-58
2022/02/15 00:37:32;;;;;;;12.48;7.47;;;;;;;-0.70;57.31;99863.38;5074684;28;20037;-58
2022/02/15 00:39:58;;;;;;;13.38;8.02;;;;;;;-0.71;57.66;99874.81;5075259;28;20109;-54
2022/02/15 00:42:23;;;;;;;14.27;8.32;;;;;;;-0.75;57.41;99874.06;5074924;28;20115;-56
2022/02/15 00:44:49;;;;;;;16.92;7.97;;;;;;;-0.75;58.04;99874.06;5074683;28;20041;-56
2022/02/15 00:47:16;;;;;;;14.68;8.30;;;;;;;-0.85;57.64;99867.38;5074783;28;20035;-59
2022/02/15 00:49:42;;;;;;;13.60;7.38;;;;;;;-0.77;58.00;99875.88;5074918;28;20029;-52
2022/02/15 00:52:07;;;;;;;15.15;8.55;;;;;;;-0.78;58.12;99875.94;5074489;28;20024;-57
2022/02/15 00:54:33;;;;;;;14.18;7.85;;;;;;;-0.79;58.34;99871.59;5074525;28;20028;-56
2022/02/15 00:56:59;;;;;;;15.45;7.40;;;;;;;-0.80;57.93;99886.50;5074827;28;20029;-53
2022/02/15 00:59:24;;;;;;;15.65;9.02;;;;;;;-0.82;58.13;99882.22;5074717;28;20467;-55
2022/02/15 01:01:50;;;;;;;14.30;8.07;;;;;;;-0.87;58.29;99874.47;5074397;28;20474;-55
2022/02/15 01:04:15;;;;;;;16.48;8.65;;;;;;;-1.05;58.59;99854.91;5074570;28;20452;-55
2022/02/15 01:06:41;;;;;;;15.00;8.50;;;;;;;-1.10;58.38;99856.78;5074303;28;20446;-58
2022/02/15 01:09:07;;;;;;;16.02;8.45;;;;;;;-0.97;58.71;99881.78;5074409;28;20033;-54
2022/02/15 01:11:32;;;;;;;14.50;8.75;;;;;;;-1.02;59.25;99876.66;5056318;28;20032;-53
2022/02/15 01:13:58;;;;;;;14.50;8.48;;;;;;;-1.18;59.24;99843.94;5074769;28;20436;-55
2022/02/15 01:16:23;;;;;;;14.80;8.30;;;;;;;-0.98;59.32;99876.56;5074024;28;20029;-57
2022/02/15 01:18:49;;;;;;;17.95;8.90;;;;;;;-0.95;59.46;99887.84;5074015;28;20028;-56
2022/02/15 01:21:14;;;;;;;15.35;8.60;;;;;;;-0.96;59.04;99880.03;5074238;28;20064;-58
2022/02/15 01:23:40;;;;;;;15.15;8.57;;;;;;;-0.94;59.41;99886.94;5074479;28;20036;-57
2022/02/15 01:26:06;;;;;;;14.50;8.18;;;;;;;-0.93;59.41;99888.66;5074090;28;20037;-58
2022/02/15 01:28:34;;;;;;;18.73;8.73;;;;;;;-0.95;59.08;99884.38;5073919;28;20113;-59
2022/02/15 01:31:01;;;;;;;14.75;7.93;;;;;;;-0.83;59.29;99898.91;5074108;28;20028;-59
2022/02/15 01:33:26;;;;;;;17.73;8.68;;;;;;;-0.87;59.69;99906.84;5073933;28;20462;-57
2022/02/15 01:35:52;;;;;;;14.35;8.18;;;;;;;-0.84;59.45;99907.66;5073894;28;20025;-60
2022/02/15 01:38:17;;;;;;;16.15;8.32;;;;;;;-0.84;59.43;99910.28;5073677;28;20025;-59
2022/02/15 01:40:43;;;;;;;15.18;8.80;;;;;;;-0.83;59.84;99917.31;5072984;28;20098;-59
2022/02/15 01:43:09;;;;;;;16.08;9.18;;;;;;;-0.84;59.91;99915.56;5073936;28;20024;-58
2022/02/15 01:45:34;;;;;;;15.20;8.52;;;;;;;-0.94;60.28;99901.88;5073994;28;20446;-57
2022/02/15 01:48:00;;;;;;;19.38;9.20;;;;;;;-0.87;59.87;99913.91;5073808;28;20024;-58
2022/02/15 01:50:26;;;;;;;20.23;9.55;;;;;;;-0.93;59.75;99904.44;5073446;28;20033;-59
2022/02/15 01:52:51;;;;;;;15.32;9.30;;;;;;;-0.92;59.97;99919.28;5055995;28;20397;-58
2022/02/15 01:55:17;;;;;;;15.18;8.50;;;;;;;-0.89;59.82;99918.34;5073617;28;20197;-57
2022/02/15 01:57:43;;;;;;;18.55;9.35;;;;;;;-0.88;59.98;99922.69;5073419;28;20025;-56
2022/02/15 02:00:12;;;;;;;16.05;9.30;;;;;;;-1.13;60.30;99881.41;5073205;28;20052;-57
2022/02/15 02:02:38;;;;;;;13.50;8.55;;;;;;;-0.95;60.35;99921.19;5073538;28;20108;-58
2022/02/15 02:07:48;;;;;;;19.25;9.25;;;;;;;-1.07;60.52;99918.00;5073190;28;20031;-58
2022/02/15 02:10:15;;;;;;;15.88;9.32;;;;;;;-1.05;61.28;99925.84;5073299;28;20029;-56
2022/02/15 02:12:40;;;;;;;16.80;8.98;;;;;;;-1.12;61.27;99919.94;5073293;28;20032;-57
2022/02/15 02:15:08;;;;;;;16.52;9.23;;;;;;;-1.15;61.48;99927.91;5072974;28;20043;-55
2022/02/15 02:17:35;;;;;;;16.13;9.50;;;;;;;-1.13;61.41;99917.34;5072933;28;20490;-58
2022/02/15 02:20:03;;;;;;;17.33;9.73;;;;;;;-1.19;61.76;99910.53;5073066;28;20044;-58
2022/02/15 02:22:29;;;;;;;18.85;9.93;;;;;;;-1.17;61.75;99929.72;5054766;28;20040;-61
2022/02/15 02:24:56;;;;;;;15.65;9.85;;;;;;;-1.42;61.80;99887.56;5072819;28;20043;-60
2022/02/15 02:27:24;;;;;;;18.27;9.77;;;;;;;-1.18;61.99;99939.34;5072942;28;20039;-61
2022/02/15 02:29:51;;;;;;;16.13;9.55;;;;;;;-1.30;62.31;99922.19;5072825;28;20035;-58
2022/02/15 02:32:18;;;;;;;15.90;8.73;;;;;;;-1.19;62.58;99942.88;5072617;28;20505;-56
2022/02/15 02:34:44;;;;;;;17.60;9.52;;;;;;;-1.16;62.63;99952.47;5072597;28;20029;-58
2022/02/15 02:37:13;;;;;;;19.25;9.75;;;;;;;-1.18;62.20;99941.13;5072916;28;20040;-53
2022/02/15 02:39:40;;;;;;;18.13;10.50;;;;;;;-1.17;62.80;99943.69;5072500;28;20186;-55
2022/02/15 02:42:06;;;;;;;17.80;9.85;;;;;;;-1.27;62.34;99936.16;5073079;28;20127;-57
2022/02/15 02:44:31;;;;;;;18.90;9.85;;;;;;;-1.13;62.38;99948.88;5054621;28;20115;-57
2022/02/15 02:46:57;;;;;;;21.08;9.68;;;;;;;-1.18;62.44;99941.97;5072261;28;20040;-60
2022/02/15 02:49:22;;;;;;;16.90;9.75;;;;;;;-1.18;62.57;99946.41;5072111;28;20033;-59
2022/02/15 02:51:48;;;;;;;16.35;9.65;;;;;;;-1.21;62.74;99954.34;5072337;28;20040;-60
2022/02/15 02:54:13;;;;;;;16.85;8.90;;;;;;;-1.23;62.90;99953.53;5054420;28;20526;-61
2022/02/15 02:56:39;;;;;;;17.23;9.68;;;;;;;-1.25;62.90;99964.09;5072067;28;20028;-55
2022/02/15 02:59:04;;;;;;;20.58;10.20;;;;;;;-1.26;63.31;99953.63;5054707;28;20082;-54
2022/02/15 03:01:30;;;;;;;17.02;9.63;;;;;;;-1.24;63.33;99962.31;5072452;28;20115;-58
2022/02/15 03:03:55;;;;;;;18.02;9.90;;;;;;;-1.26;63.02;99959.75;5071932;28;20040;-60
2022/02/15 03:06:21;;;;;;;19.40;9.65;;;;;;;-1.35;63.74;99941.63;5071924;28;20130;-60
2022/02/15 03:08:47;;;;;;;15.98;9.68;;;;;;;-1.38;63.01;99934.72;5072267;28;20055;-58
2022/02/15 03:11:13;;;;;;;18.85;10.13;;;;;;;-1.34;63.72;99943.34;5071983;28;20476;-60
2022/02/15 03:13:38;;;;;;;21.00;10.55;;;;;;;-1.23;63.31;99958.78;5071925;28;20044;-57
2022/02/15 03:16:04;;;;;;;18.88;10.23;;;;;;;-1.24;63.18;99964.94;5072010;28;20108;-57
2022/02/15 03:18:30;;;;;;;18.05;9.65;;;;;;;-1.25;63.06;99957.97;5071881;28;20371;-57
2022/02/15 03:20:55;;;;;;;19.58;10.25;;;;;;;-1.46;63.77;99931.44;5071856;28;20041;-61
2022/02/15 03:23:20;;;;;;;18.50;10.45;;;;;;;-1.30;63.73;99961.59;5071518;28;20039;-58
2022/02/15 03:25:46;;;;;;;19.20;10.52;;;;;;;-1.30;63.44;99974.72;5071782;28;20129;-56
2022/02/15 03:28:11;;;;;;;18.30;9.65;;;;;;;-1.28;63.71;99969.44;5053926;28;20585;-59
2022/02/15 03:30:37;;;;;;;20.30;10.13;;;;;;;-1.33;63.13;99966.94;5071922;28;20032;-56
2022/02/15 03:33:03;;;;;;;21.17;10.85;;;;;;;-1.35;63.19;99947.75;5071413;28;20028;-59
2022/02/15 03:35:28;;;;;;;18.67;9.90;;;;;;;-1.27;63.18;99978.19;5071408;28;20030;-58
2022/02/15 03:37:54;;;;;;;18.83;9.38;;;;;;;-1.28;63.61;99968.56;5071830;28;20039;-59
2022/02/15 03:40:19;;;;;;;18.60;10.30;;;;;;;-1.34;63.26;99970.47;5071558;28;20029;-61
2022/02/15 03:45:29;;;;;;;18.40;9.98;;;;;;;-1.36;63.29;99960.91;5071387;28;20432;-62
2022/02/15 03:47:55;;;;;;;21.23;11.07;;;;;;;-1.37;63.37;99970.56;5071766;28;20107;-62
2022/02/15 03:50:21;;;;;;;18.27;10.18;;;;;;;-1.42;63.48;99972.47;5071187;28;20404;-58
2022/02/15 03:52:46;;;;;;;19.63;10.38;;;;;;;-1.45;63.84;99972.53;5070932;28;20028;-60
2022/02/15 03:55:12;;;;;;;20.63;9.98;;;;;;;-1.45;63.88;99983.03;5070921;28;20033;-56
2022/02/15 03:57:38;;;;;;;17.58;10.13;;;;;;;-1.45;64.13;99988.28;5071677;28;20444;-57
2022/02/15 04:00:06;;;;;;;18.42;9.90;;;;;;;-1.46;63.84;99991.84;5071112;28;20131;-60
2022/02/15 04:02:32;;;;;;;19.02;10.40;;;;;;;-1.70;63.99;99954.84;5070795;28;20492;-61
2022/02/15 04:04:58;;;;;;;23.13;11.48;;;;;;;-1.56;64.09;99985.13;5070572;28;20424;-60
2022/02/15 04:07:24;;;;;;;18.48;10.27;;;;;;;-1.51;64.44;99988.47;5071426;28;20094;-61
2022/02/15 04:09:49;;;;;;;20.30;11.20;;;;;;;-1.54;63.74;99988.56;5070868;28;20028;-60
2022/02/15 04:12:14;;;;;;;20.25;11.10;;;;;;;-1.55;64.20;99986.84;5070628;28;20112;-60
2022/02/15 04:14:40;;;;;;;21.00;10.60;;;;;;;-1.56;64.44;99986.00;5071203;28;20024;-58
2022/02/15 04:17:06;;;;;;;22.42;11.35;;;;;;;-1.55;64.58;99992.97;5070666;28;20056;-60
2022/02/15 04:19:31;;;;;;;22.33;11.43;;;;;;;-1.55;64.50;99992.97;5070671;28;20037;-59
2022/02/15 04:21:57;;;;;;;19.35;10.73;;;;;;;-1.61;63.82;99983.50;5070821;28;20110;-59
2022/02/15 04:24:23;;;;;;;20.52;10.40;;;;;;;-1.54;64.22;99996.44;5070641;28;20025;-62
2022/02/15 04:26:48;;;;;;;19.52;10.82;;;;;;;-1.57;64.34;99992.13;5070662;28;20048;-60
2022/02/15 04:29:14;;;;;;;19.23;10.15;;;;;;;-1.52;64.78;100003.38;5070995;28;20111;-58
2022/02/15 04:31:40;;;;;;;20.30;11.27;;;;;;;-1.50;64.71;99990.19;5070918;28;20095;-59
2022/02/15 04:34:06;;;;;;;18.30;10.50;;;;;;;-1.56;63.97;99979.88;5071181;28;20039;-61
2022/02/15 04:36:31;;;;;;;19.13;10.30;;;;;;;-1.50;64.06;99990.19;5070669;28;20025;-59
2022/02/15 04:38:56;;;;;;;18.40;10.77;;;;;;;-1.50;64.79;100000.69;5052919;28;20036;-63
2022/02/15 04:41:22;;;;;;;19.85;10.35;;;;;;;-1.48;64.63;100010.28;5070925;28;20115;-59
2022/02/15 04:43:48;;;;;;;17.90;10.65;;;;;;;-1.49;64.40;100008.56;5070442;28;20474;-60
2022/02/15 04:46:13;;;;;;;23.52;11.13;;;;;;;-1.47;64.50;100013.75;5052799;28;20055;-61
2022/02/15 04:48:39;;;;;;;20.05;11.00;;;;;;;-1.45;64.63;100015.44;5070495;28;20052;-59
2022/02/15 04:51:04;;;;;;;21.85;11.32;;;;;;;-1.42;64.24;100014.50;5070607;28;20123;-60
2022/02/15 04:53:30;;;;;;;20.23;10.60;;;;;;;-1.38;64.06;100021.38;5070638;28;20474;-61
2022/02/15 04:55:55;;;;;;;19.98;10.57;;;;;;;-1.39;63.78;100011.78;5070854;28;20032;-59
2022/02/15 04:58:21;;;;;;;19.48;10.68;;;;;;;-1.42;63.80;100009.25;5052695;28;20024;-56
2022/02/15 05:00:48;;;;;;;19.15;10.25;;;;;;;-1.31;63.45;100016.81;5070638;28;20489;-58
2022/02/15 05:03:14;;;;;;;18.58;10.55;;;;;;;-1.32;63.34;100015.94;5070957;28;20054;-58
2022/02/15 05:05:40;;;;;;;19.20;10.98;;;;;;;-1.20;63.18;100021.78;5070828;28;20470;-59
2022/02/15 05:08:05;;;;;;;22.33;10.75;;;;;;;-1.21;62.94;100004.25;5070229;28;20047;-57
2022/02/15 05:10:31;;;;;;;18.30;10.48;;;;;;;-1.03;62.44;100021.28;5052425;28;20032;-59
2022/02/15 05:12:57;;;;;;;21.85;10.65;;;;;;;-0.93;62.23;100011.34;5070468;28;20040;-59
2022/02/15 05:15:22;;;;;;;21.20;11.65;;;;;;;-0.79;61.99;100019.66;5070394;28;20170;-61
2022/02/15 05:17:47;;;;;;;18.98;10.55;;;;;;;-0.67;61.79;100028.09;5054788;28;20048;-61
2022/02/15 05:20:16;;;;;;;17.30;9.88;;;;;;;-0.70;61.35;99986.13;5074175;28;20044;-60
2022/02/15 05:22:42;;;;;;;21.00;10.32;;;;;;;-0.59;60.38;99986.63;5074599;28;20033;-60
2022/02/15 05:25:10;;;;;;;22.08;10.23;;;;;;;-0.22;60.15;100030.19;5074211;28;20037;-60
2022/02/15 05:27:36;;;;;;;19.95;9.90;;;;;;;-0.02;59.62;100026.00;5073801;28;20076;-60
2022/02/15 05:30:01;;;;;;;18.10;9.60;;;;;;;0.19;58.98;100024.44;5055848;28;20121;-62
2022/02/15 05:32:29;;;;;;;18.92;9.75;;;;;;;0.39;58.22;100020.25;5074188;28;20454;-60
2022/02/15 05:34:54;;;;;;;16.35;9.43;;;;;;;0.64;57.42;100025.47;5073798;28;20078;-59
2022/02/15 05:37:20;;;;;;;17.88;10.18;;;;;;;0.95;56.83;100026.97;5073810;28;20029;-59
2022/02/15 05:39:45;;;;;;;19.25;9.50;;;;;;;1.55;55.47;100021.16;5055792;28;20028;-59
2022/02/15 05:42:11;;;;;;;17.83;9.80;;;;;;;2.78;52.02;100031.00;5073992;28;20028;-59
2022/02/15 05:44:36;;;;;;;17.60;10.25;;;;;;;4.08;48.47;100016.91;5073705;28;20029;-62
2022/02/15 05:47:02;;;;;;;20.02;10.25;;;;;;;5.45;45.28;100030.94;5039027;28;20025;-60
2022/02/15 05:49:28;;;;;;;16.50;9.85;;;;;;;6.69;42.18;100026.44;5073376;28;20446;-60
2022/02/15 05:51:53;;;;;;;16.42;9.57;;;;;;;7.68;40.24;100026.50;5073462;28;20089;-61
2022/02/15 05:54:19;;;;;;;16.08;9.48;;;;;;;8.54;38.28;100033.22;5073452;28;20052;-60
2022/02/15 05:56:44;;;;;;;15.77;9.15;;;;;;;9.24;36.86;100024.84;5073757;28;20032;-61
2022/02/15 05:59:10;;;;;;;14.35;9.30;;;;;;;9.72;35.72;100037.44;5073133;28;20066;-61
2022/02/15 06:01:35;;;;;;;16.95;9.50;;;;;;;10.22;34.35;100039.13;5073530;28;20028;-62
2022/02/15 06:04:10;;;;;;;15.32;9.02;;;;;;;10.89;33.26;100021.53;5055848;28;20044;-60
2022/02/15 06:06:36;;;;;;;15.70;8.68;;;;;;;11.63;31.99;100025.44;5073288;28;20024;-60
2022/02/15 06:09:02;;;;;;;13.30;8.32;;;;;;;12.39;30.80;100039.81;5073242;28;20371;-61
2022/02/15 06:11:27;;;;;;;14.23;8.77;;;;;;;13.22;29.23;100029.06;5073055;28;20462;-61
2022/02/15 06:13:55;;;;;;;11.98;8.25;;;;;;;14.23;27.71;100032.66;5073044;28;20723;-61
2022/02/15 06:16:24;;;;;;;13.98;8.18;;;;;;;15.44;26.83;100046.41;5072920;28;20032;-59
2022/02/15 06:18:51;;;;;;;12.30;8.10;;;;;;;16.18;25.00;100040.09;5072485;28;20040;-63
2022/02/15 06:21:17;;;;;;;13.55;9.35;;;;;;;16.70;23.81;100044.72;5055368;28;20032;-61
2022/02/15 06:23:43;;;;;;;12.43;9.25;;;;;;;17.33;22.58;100048.13;5072263;28;20389;-60
2022/02/15 06:26:08;;;;;;;13.70;8.38;;;;;;;17.95;22.02;100040.69;5054476;28;20382;-62
2022/02/15 06:28:34;;;;;;;11.77;9.23;;;;;;;18.36;21.38;100043.47;5072305;28;20393;-62
2022/02/15 06:31:00;;;;;;;15.10;9.80;;;;;;;18.91;20.47;100029.34;5054366;28;20032;-61
2022/02/15 06:33:25;;;;;;;12.40;9.38;;;;;;;19.25;20.02;100040.97;5072337;28;20028;-61
2022/02/15 06:35:51;;;;;;;11.95;9.82;;;;;;;19.29;19.82;100042.31;5072549;28;20028;-62
2022/02/15 06:38:16;;;;;;;12.60;8.85;;;;;;;19.64;19.26;100045.53;5072349;28;20108;-62
2022/02/15 06:40:42;;;;;;;10.98;9.23;;;;;;;19.39;19.48;100050.25;5072235;28;20098;-61
2022/02/15 06:43:07;;;;;;;15.13;9.63;;;;;;;19.13;19.46;100049.47;5072363;28;20086;-61
2022/02/15 06:45:33;;;;;;;14.52;9.82;;;;;;;19.14;19.06;100017.78;5054365;28;20028;-63
2022/02/15 06:47:58;;;;;;;17.20;9.40;;;;;;;19.80;18.73;100048.16;5072022;28;20029;-63
2022/02/15 06:50:25;;;;;;;13.15;9.60;;;;;;;20.50;17.96;100050.94;5072293;28;20063;-63
2022/02/15 06:52:51;;;;;;;12.93;9.98;;;;;;;21.18;17.38;100051.94;5072505;28;20035;-63
2022/02/15 06:55:17;;;;;;;13.15;9.80;;;;;;;21.73;16.48;100054.38;5054234;28;20036;-64
2022/02/15 06:57:42;;;;;;;13.55;10.13;;;;;;;22.20;15.86;100060.31;5053987;28;20052;-62
2022/02/15 07:00:09;;;;;;;11.38;9.40;;;;;;;22.50;15.73;100055.59;5072604;28;20466;-64
2022/02/15 07:02:35;;;;;;;14.88;10.45;;;;;;;22.65;15.48;100046.44;5072294;28;20035;-63
2022/02/15 07:05:02;;;;;;;12.27;9.50;;;;;;;22.57;15.44;100035.69;5071666;28;20032;-62
2022/02/15 07:07:29;;;;;;;15.77;9.85;;;;;;;22.94;14.77;100052.78;5072163;28;20120;-63
2022/02/15 07:09:54;;;;;;;12.15;9.35;;;;;;;22.95;14.97;100062.66;5072188;28;20464;-63
2022/02/15 07:12:20;;;;;;;14.02;9.90;;;;;;;23.13;14.86;100061.25;5071671;28;20097;-61
2022/02/15 07:14:45;;;;;;;14.10;10.02;;;;;;;23.45;14.17;100050.78;5071089;28;20183;-61
2022/02/15 07:17:11;;;;;;;13.55;10.13;;;;;;;23.72;13.97;100061.81;5071777;28;20045;-61
2022/02/15 07:19:37;;;;;;;11.60;9.05;;;;;;;24.18;13.54;100058.38;5071842;28;20037;-61
2022/02/15 07:22:03;;;;;;;13.52;9.40;;;;;;;24.41;13.40;100065.34;5071479;28;20036;-60
2022/02/15 07:24:29;;;;;;;11.73;9.98;;;;;;;24.49;13.19;100062.38;5071043;28;20037;-62
2022/02/15 07:26:55;;;;;;;12.05;9.90;;;;;;;24.72;13.08;100069.34;5071537;28;20040;-60
2022/02/15 07:29:21;;;;;;;11.68;9.60;;;;;;;24.32;13.15;100077.53;5072066;28;20033;-60
2022/02/15 07:31:48;;;;;;;10.57;9.55;;;;;;;24.20;13.90;100072.69;5071354;28;20037;-62
2022/02/15 07:34:14;;;;;;;12.35;9.50;;;;;;;23.81;13.61;100071.50;5071196;28;20386;-60
2022/02/15 07:36:39;;;;;;;11.20;9.57;;;;;;;23.05;14.25;100073.22;5071747;28;20028;-61
2022/02/15 07:39:05;;;;;;;13.05;9.93;;;;;;;22.43;14.54;100048.34;5071148;28;20032;-60
2022/02/15 07:41:30;;;;;;;16.05;9.70;;;;;;;22.83;14.53;100047.84;5071408;28;20459;-60
2022/02/15 07:43:57;;;;;;;16.27;9.40;;;;;;;23.44;14.17;100076.41;5071091;28;20033;-61
2022/02/15 07:46:23;;;;;;;12.20;9.57;;;;;;;23.44;13.81;100049.09;5071639;28;20356;-60
2022/02/15 07:48:49;;;;;;;12.82;9.20;;;;;;;23.47;13.61;100076.81;5071524;28;20438;-63
2022/02/15 07:51:16;;;;;;;13.75;10.10;;;;;;;22.67;14.03;100082.59;5071220;28;20032;-62
2022/02/15 07:53:41;;;;;;;12.10;9.30;;;;;;;22.23;14.65;100088.06;5071225;28;20031;-64
2022/02/15 07:56:07;;;;;;;13.70;9.80;;;;;;;21.21;15.30;100076.94;5071266;28;20032;-62
2022/02/15 07:58:33;;;;;;;15.48;9.65;;;;;;;19.17;16.94;100061.72;5071428;28;20025;-63
2022/02/15 08:00:58;;;;;;;14.38;9.65;;;;;;;17.10;19.22;100079.47;5070987;28;20028;-62
2022/02/15 08:03:25;;;;;;;12.60;9.68;;;;;;;15.10;21.45;100075.78;5071143;28;20025;-61
2022/02/15 08:05:51;;;;;;;15.40;10.00;;;;;;;13.12;23.75;100052.41;5070762;28;20031;-62
2022/02/15 08:08:17;;;;;;;14.30;9.43;;;;;;;11.78;25.88;100075.16;5070327;28;20385;-62
2022/02/15 08:10:44;;;;;;;15.85;9.63;;;;;;;10.62;28.00;100081.63;5052789;28;20036;-59
2022/02/15 08:13:10;;;;;;;17.45;10.18;;;;;;;9.53;29.73;100072.69;5070190;28;20032;-62
2022/02/15 08:15:38;;;;;;;15.13;9.18;;;;;;;8.71;31.01;100072.13;5070726;28;20028;-61
2022/02/15 08:18:04;;;;;;;14.98;9.43;;;;;;;8.20;31.98;100078.19;5070858;28;20036;-59
2022/02/15 08:20:31;;;;;;;17.33;9.85;;;;;;;7.70;32.93;100073.41;5070497;28;20203;-60
2022/02/15 08:22:57;;;;;;;16.35;9.85;;;;;;;7.22;33.80;100075.59;5070991;28;20045;-57
2022/02/15 08:25:23;;;;;;;12.63;8.50;;;;;;;6.97;34.63;100083.28;5071164;28;20094;-63
2022/02/15 08:27:48;;;;;;;14.88;8.77;;;;;;;6.83;35.08;100083.28;5070512;28;20073;-62
2022/02/15 08:30:16;;;;;;;16.45;9.52;;;;;;;6.68;35.20;100075.28;5070806;28;20041;-61
2022/02/15 08:32:42;;;;;;;19.05;9.45;;;;;;;6.54;35.01;100064.63;5070599;28;20036;-62
2022/02/15 08:35:08;;;;;;;13.20;9.15;;;;;;;6.64;35.80;100089.72;5070383;28;20320;-60
2022/02/15 08:37:35;;;;;;;14.07;9.20;;;;;;;6.57;35.36;100083.91;5070507;28;20107;-60
2022/02/15 08:40:06;;;;;;;16.27;8.57;;;;;;;6.54;35.97;100093.88;5070198;28;20020;-61
2022/02/15 08:42:32;;;;;;;14.48;8.88;;;;;;;6.37;35.78;100077.13;5070392;28;20037;-55
2022/02/15 08:44:58;;;;;;;14.70;9.32;;;;;;;6.23;35.99;100074.41;5070592;28;20031;-59
2022/02/15 08:47:24;;;;;;;16.55;9.40;;;;;;;6.04;36.59;100078.16;5071451;28;20496;-62
2022/02/15 08:49:52;;;;;;;14.15;9.00;;;;;;;5.93;37.16;100089.38;5070294;28;20028;-62
2022/02/15 08:52:19;;;;;;;13.82;8.95;;;;;;;5.73;37.51;100087.81;5074413;28;20416;-61
2022/02/15 08:54:45;;;;;;;15.57;9.32;;;;;;;5.63;37.30;100086.63;5074703;28;20032;-59
2022/02/15 08:57:11;;;;;;;14.15;8.95;;;;;;;5.49;38.01;100090.91;5074217;28;20111;-62
2022/02/15 08:59:36;;;;;;;17.13;9.38;;;;;;;5.32;38.26;100087.41;5073977;28;20482;-62
2022/02/15 09:02:03;;;;;;;14.13;8.82;;;;;;;5.46;38.40;100091.06;5056278;28;20035;-61
2022/02/15 09:04:28;;;;;;;17.88;9.68;;;;;;;5.50;37.85;100087.28;5075002;28;20032;-62
2022/02/15 09:06:54;;;;;;;14.95;9.60;;;;;;;5.46;38.31;100094.59;5074482;28;20066;-60
2022/02/15 09:09:20;;;;;;;13.05;8.98;;;;;;;5.42;38.38;100086.88;5074045;28;20029;-63
2022/02/15 09:11:46;;;;;;;15.82;9.23;;;;;;;5.56;38.72;100091.41;5074131;28;20032;-62
2022/02/15 09:14:11;;;;;;;17.25;10.02;;;;;;;5.59;38.26;100091.25;5074352;28;20032;-61
2022/02/15 09:16:38;;;;;;;15.10;9.25;;;;;;;5.63;37.78;100102.56;5073992;28;20028;-61
2022/02/15 09:19:04;;;;;;;18.85;10.07;;;;;;;5.66;38.27;100094.44;5038706;28;20393;-61
2022/02/15 09:21:30;;;;;;;16.13;9.63;;;;;;;5.71;38.34;100081.72;5073478;28;20473;-59
2022/02/15 09:23:55;;;;;;;16.88;9.85;;;;;;;5.75;38.41;100091.25;5074286;28;20039;-61
2022/02/15 09:26:21;;;;;;;13.57;9.13;;;;;;;5.84;38.31;100092.53;5073736;28;20111;-63
2022/02/15 09:28:46;;;;;;;16.52;10.02;;;;;;;5.83;37.83;100080.19;5073137;28;20036;-59
2022/02/15 09:31:14;;;;;;;18.75;9.98;;;;;;;5.83;38.03;100093.47;5073316;28;20478;-61
2022/02/15 09:33:40;;;;;;;13.75;9.02;;;;;;;5.83;38.60;100082.84;5073864;28;20032;-61
2022/02/15 09:36:05;;;;;;;19.75;9.57;;;;;;;5.87;38.48;100084.38;5073964;28;20031;-61
2022/02/15 09:38:31;;;;;;;15.05;9.98;;;;;;;5.95;37.87;100075.97;5055576;28;20531;-59
2022/02/15 09:40:57;;;;;;;18.65;9.60;;;;;;;5.94;38.27;100082.22;5073540;28;20048;-61
2022/02/15 09:43:22;;;;;;;15.30;8.73;;;;;;;5.88;37.90;100079.00;5073865;28;20087;-61
2022/02/15 09:45:49;;;;;;;15.05;9.07;;;;;;;5.80;38.14;100081.22;5073976;28;20028;-59
2022/02/15 09:48:18;;;;;;;14.98;9.32;;;;;;;5.80;38.52;100101.63;5073544;28;20099;-59
2022/02/15 09:50:43;;;;;;;19.20;10.20;;;;;;;5.70;38.86;100085.34;5055541;28;20020;-58
2022/02/15 09:53:09;;;;;;;17.50;9.70;;;;;;;5.65;39.00;100082.09;5073901;28;20028;-59
2022/02/15 09:55:35;;;;;;;16.02;9.85;;;;;;;5.57;39.09;100087.81;5073655;28;20432;-58
2022/02/15 09:58:00;;;;;;;17.15;10.63;;;;;;;5.50;39.28;100100.56;5073617;28;20055;-58
2022/02/15 10:00:26;;;;;;;15.90;10.05;;;;;;;5.34;39.49;100103.22;5073172;28;20385;-60
2022/02/15 10:02:52;;;;;;;17.63;9.70;;;;;;;5.21;39.79;100103.03;5072474;28;20114;-57
2022/02/15 10:05:20;;;;;;;15.98;9.45;;;;;;;5.12;40.49;100108.84;5073084;28;20482;-60
2022/02/15 10:07:56;;;;;;;15.38;9.65;;;;;;;5.14;40.69;100110.47;5073255;28;20068;-57
2022/02/15 10:10:28;;;;;;;16.35;9.73;;;;;;;5.13;40.57;100110.56;5073046;28;20033;-55
2022/02/15 10:13:05;;;;;;;17.30;9.40;;;;;;;5.12;40.01;100107.03;5073272;28;20090;-55
2022/02/15 10:15:36;;;;;;;16.65;9.70;;;;;;;5.11;40.31;100107.13;5073230;28;20056;-56
2022/02/15 10:18:14;;;;;;;15.48;9.40;;;;;;;5.19;39.86;100117.34;5073279;28;20044;-60
2022/02/15 10:20:43;;;;;;;13.68;9.20;;;;;;;4.92;40.61;100072.72;5073037;28;20044;-59
2022/02/15 10:23:33;;;;;;;14.35;9.52;;;;;;;5.22;40.70;100115.38;5072774;28;20477;-57
2022/02/15 10:26:00;;;;;;;16.45;9.73;;;;;;;5.20;40.30;100103.97;5073373;28;20029;-56
2022/02/15 10:28:28;;;;;;;19.02;9.60;;;;;;;5.13;40.54;100100.78;5072634;28;20020;-57
2022/02/15 10:30:54;;;;;;;14.35;9.38;;;;;;;5.10;40.61;100102.75;5054750;28;20035;-57
2022/02/15 10:33:28;;;;;;;19.85;9.50;;;;;;;4.89;40.45;100068.47;5073048;28;20036;-56
2022/02/15 10:36:00;;;;;;;20.92;9.75;;;;;;;5.14;41.59;100106.97;5072862;28;20067;-51
2022/02/15 10:38:32;;;;;;;16.90;8.73;;;;;;;5.17;41.21;100104.13;5072625;28;20054;-58
2022/02/15 10:41:00;;;;;;;16.65;9.60;;;;;;;5.14;41.27;100109.63;5073023;28;20485;-57
2022/02/15 10:43:27;;;;;;;15.63;9.27;;;;;;;5.13;41.54;100107.91;5072845;28;20056;-57
2022/02/15 10:45:52;;;;;;;17.70;9.88;;;;;;;5.10;41.52;100098.28;5072457;28;20539;-55
2022/02/15 10:48:28;;;;;;;17.58;10.20;;;;;;;5.28;41.14;100107.06;5072487;28;20028;-57
2022/02/15 10:50:55;;;;;;;21.50;10.98;;;;;;;5.28;41.46;100106.22;5072805;28;20032;-59
2022/02/15 10:53:22;;;;;;;18.10;10.02;;;;;;;5.37;41.33;100107.53;5072834;28;20039;-56
2022/02/15 10:55:49;;;;;;;17.48;9.90;;;;;;;5.50;40.87;100119.16;5054078;28;20389;-57
2022/02/15 10:58:15;;;;;;;17.80;10.23;;;;;;;5.43;41.42;100083.28;5054745;28;20070;-56
2022/02/15 11:00:42;;;;;;;16.75;9.82;;;;;;;5.65;40.86;100114.81;5054753;28;20040;-59
2022/02/15 11:03:10;;;;;;;15.85;9.90;;;;;;;5.77;41.33;100109.75;5072068;28;20032;-57
2022/02/15 11:05:35;;;;;;;17.73;10.02;;;;;;;5.79;40.65;100118.50;5071992;28;20040;-58
2022/02/15 11:08:01;;;;;;;15.93;9.27;;;;;;;5.78;41.00;100103.50;5072609;28;20033;-58
2022/02/15 11:10:26;;;;;;;14.30;9.02;;;;;;;5.78;40.46;100114.97;5072562;28;20060;-58
2022/02/15 11:13:01;;;;;;;18.25;9.68;;;;;;;5.75;40.62;100110.72;5071866;28;20040;-56
2022/02/15 11:15:34;;;;;;;15.98;9.27;;;;;;;5.68;41.47;100125.28;5071661;28;20032;-56
2022/02/15 11:18:02;;;;;;;18.67;9.98;;;;;;;5.59;41.51;100105.41;5072009;28;20113;-58
2022/02/15 11:20:29;;;;;;;17.67;10.07;;;;;;;5.61;41.44;100115.91;5072115;28;20047;-58
2022/02/15 11:23:00;;;;;;;14.55;9.38;;;;;;;5.72;41.21;100118.84;5071500;28;20037;-54